Погода Марианана 2 недели

Минас-Жерайс, Бразилия

18 - 31 июля
  • 18июля
    Сегодня
    +11°
    +25°
    Практически безоблачно
    ВремяПогодаТемператураВлажностьДавлениеВетер, м/сВероятность осадков
    00:00Ясно и безоблачно+16°C66 %691 мм0.6 м/с5 %
    03:00Ясно и безоблачно+16°C69 %691 мм0.5 м/с5 %
    06:00Облачно с прояснениями+15°C73 %691 мм0.8 м/с5 %
    09:00Ясно и безоблачно+18°C61 %693 мм0.7 м/с5 %
    12:00Практически безоблачно+23°C48 %693 мм1.6 м/с5 %
    15:00Практически безоблачно+25°C44 %692 мм2.8 м/с5 %
    18:00Ясно и безоблачно+19°C53 %691 мм0.7 м/с5 %
    21:00Ясно и безоблачно+18°C58 %692 мм0.6 м/с5 %
  • 19июля
    Пятница
    +11°
    +24°
    Ясно и безоблачно
    ВремяПогодаТемператураВлажностьДавлениеВетер, м/сВероятность осадков
    00:00Ясно и безоблачно+15°C68 %692 мм1.2 м/с5 %
    03:00Ясно и безоблачно+13°C77 %691 мм2.0 м/с5 %
    06:00Ясно и безоблачно+13°C82 %692 мм1.2 м/с5 %
    09:00Ясно и безоблачно+17°C66 %694 мм1.0 м/с5 %
    12:00Ясно и безоблачно+22°C55 %694 мм1.6 м/с5 %
    15:00Ясно и безоблачно+24°C48 %694 мм2.0 м/с5 %
    18:00Ясно и безоблачно+18°C66 %693 мм0.4 м/с5 %
    21:00Ясно и безоблачно+15°C81 %693 мм1.4 м/с5 %
  • 20июля
    Суббота
    +10°
    +23°
    Ясно и безоблачно
    ВремяПогодаТемператураВлажностьДавлениеВетер, м/сВероятность осадков
    00:00Ясно и безоблачно+13°C81 %692 мм1.1 м/с5 %
    03:00Ясно и безоблачно+13°C82 %692 мм1.4 м/с5 %
    06:00Ясно и безоблачно+12°C83 %692 мм0.5 м/с5 %
    09:00Практически безоблачно+16°C77 %694 мм1.2 м/с4 %
    12:00Ясно и безоблачно+21°C62 %694 мм2.0 м/с3 %
    15:00Ясно и безоблачно+23°C55 %693 мм2.1 м/с5 %
    18:00Ясно и безоблачно+17°C71 %692 мм1.0 м/с5 %
    21:00Ясно и безоблачно+15°C83 %692 мм1.6 м/с5 %
  • 21июля
    Воскресенье
    +13°
    +24°
    Ясно и безоблачно
    ВремяПогодаТемператураВлажностьДавлениеВетер, м/сВероятность осадков
    00:00Ясно и безоблачно+13°C87 %692 мм0.8 м/с5 %
    03:00Ясно и безоблачно+12°C83 %691 мм0.9 м/с5 %
    06:00Ясно и безоблачно+11°C83 %691 мм0.5 м/с5 %
    09:00Ясно и безоблачно+16°C69 %693 мм1.2 м/с5 %
    12:00Ясно и безоблачно+22°C53 %693 мм2.5 м/с5 %
    15:00Ясно и безоблачно+24°C51 %692 мм2.5 м/с5 %
    18:00Ясно и безоблачно+17°C72 %691 мм2.0 м/с5 %
    21:00Ясно и безоблачно+15°C76 %692 мм1.0 м/с5 %
  • 22июля
    Понедельник
    +12°
    +25°
    Ясно и безоблачно
    ВремяПогодаТемператураВлажностьДавлениеВетер, м/сВероятность осадков
    00:00Ясно и безоблачно+16°C69 %692 мм0.7 м/с5 %
    03:00Ясно и безоблачно+16°C66 %691 мм0.4 м/с5 %
    06:00Ясно и безоблачно+14°C75 %691 мм0.2 м/с5 %
    09:00Ясно и безоблачно+17°C72 %693 мм0.9 м/с5 %
    12:00Ясно и безоблачно+22°C56 %694 мм2.1 м/с5 %
    15:00Ясно и безоблачно+24°C49 %693 мм2.1 м/с5 %
    18:00Ясно и безоблачно+18°C65 %692 мм2.0 м/с5 %
    21:00Ясно и безоблачно+17°C71 %692 мм0.3 м/с5 %
Мы используем cookies
Соглашаюсь